M I D A S
Marine Information and Data Acquisition System
Tripno 965 of the Zeeleeuw from 2005-10-03 08:26:36 to 2005-10-03 16:56:54
Back to CruiseResearch ActivitiesStationsMapUnderway DataData graphs

EquipmentUnitsComment
TimeDGPSUTC
LatitudeDGPSDM.mWGS84
LongitudeDGPSDM.mWGS84
HeadingGyrodeg 
SOGDGPSknotsSpeed over ground
COGDGPSdegCourse over ground
DepthEcho soundermeters200 kHz
Missing or incorrect values are displayed as -999
Navigation data collected by the RV Zeeleeuw from 2005-10-03 08:24:20 to 2005-10-03 16:57:11
Time Latitude Longitude Heading SOG COG Depth
2005-10-03 08:25:25 51°13.616 2°56.045 114.3 2.8 294 -999
2005-10-03 08:26:25 51°13.635 2°55.959 120.6 3.9 295 -999
2005-10-03 08:27:25 51°13.672 2°55.863 125.4 4.4 302 -999
2005-10-03 08:28:26 51°13.704 2°55.761 111.9 3.7 291 -999
2005-10-03 08:29:25 51°13.709 2°55.749 63.1 1.5 242 13
2005-10-03 08:30:25 51°13.718 2°55.739 11.4 3.2 -999 -999
2005-10-03 08:31:25 51°13.792 2°55.672 331.7 6.5 327 8.9
2005-10-03 08:32:25 51°13.907 2°55.578 338.9 8.3 334 9.2
2005-10-03 08:33:25 51°14.037 2°55.484 341.5 8.8 337 10.2
2005-10-03 08:34:25 51°14.179 2°55.371 335.4 9.9 329 10.2
2005-10-03 08:35:25 51°14.3 2°55.187 313.3 10.5 308 10.2
2005-10-03 08:36:25 51°14.416 2°54.96 319.3 11.2 316 10
2005-10-03 08:37:24 51°14.569 2°54.783 339.2 11.9 329 9.5
2005-10-03 08:38:25 51°14.753 2°54.625 340.4 12.5 330 9
2005-10-03 08:39:25 51°14.944 2°54.492 347.2 12.5 338 8.5
2005-10-03 08:40:25 51°15.136 2°54.376 347.8 12.3 336 8.1
2005-10-03 08:41:25 51°15.328 2°54.258 352.4 12.4 340 8.8
2005-10-03 08:42:25 51°15.521 2°54.137 349.9 12.6 340 9.5
2005-10-03 08:43:25 51°15.713 2°54.009 349 12.4 336 10.3
2005-10-03 08:44:24 51°15.898 2°53.883 350.8 12.3 337 10.7
2005-10-03 08:45:25 51°16.089 2°53.751 350.1 12.3 338 11.1
2005-10-03 08:46:25 51°16.282 2°53.644 354 12.2 343 11.4
2005-10-03 08:47:25 51°16.475 2°53.541 352.4 12.1 342 11.7
2005-10-03 08:48:25 51°16.669 2°53.444 352 12.3 343 11.2
2005-10-03 08:49:25 51°16.864 2°53.345 351.7 12.2 342 10.3
2005-10-03 08:50:25 51°17.053 2°53.259 356.2 11.8 348 8
2005-10-03 08:51:24 51°17.245 2°53.192 355 12.1 345 8.8
2005-10-03 08:52:25 51°17.43 2°53.256 36.5 11.5 29 9.2
2005-10-03 08:53:24 51°17.592 2°53.415 39.8 11.6 33 9.4
2005-10-03 08:54:25 51°17.754 2°53.589 39.5 11.5 34 9.4
2005-10-03 08:55:25 51°17.917 2°53.745 35.6 11.4 30 9.6
2005-10-03 08:56:24 51°18.079 2°53.891 36.2 11.4 30 9.8
2005-10-03 08:57:25 51°18.247 2°54.041 36.5 11.3 30 10.1
2005-10-03 08:58:24 51°18.407 2°54.185 35.5 11.3 29 10.6
2005-10-03 08:59:25 51°18.569 2°54.346 39.3 11.2 33 10.6
2005-10-03 09:00:25 51°18.728 2°54.503 38.7 11.3 31 11
2005-10-03 09:01:25 51°18.886 2°54.664 40.6 11.3 34 11.3
2005-10-03 09:02:25 51°19.04 2°54.831 41.6 11.3 33 11.3
2005-10-03 09:03:24 51°19.195 2°54.992 41.3 11.2 34 11.6
2005-10-03 09:04:25 51°19.356 2°55.158 43.3 11.4 39 11.8
2005-10-03 09:05:25 51°19.46 2°55.408 62.5 11.4 59 11.8
2005-10-03 09:06:25 51°19.563 2°55.66 61.9 11.3 57 11.5
2005-10-03 09:07:25 51°19.669 2°55.909 58.8 11.4 55 11.6
2005-10-03 09:08:25 51°19.778 2°56.157 58.3 11.4 54 11.5
2005-10-03 09:09:25 51°19.889 2°56.401 57.5 11.3 51 11.7
2005-10-03 09:10:25 51°19.994 2°56.653 59.5 11.4 55 11.8
2005-10-03 09:11:25 51°20.1 2°56.904 61.4 11.4 58 11.8
2005-10-03 09:12:24 51°20.207 2°57.146 58.2 11.4 54 11.6
2005-10-03 09:13:25 51°20.32 2°57.396 60.4 11.4 57 11.8
2005-10-03 09:14:25 51°20.426 2°57.65 61.6 11.5 59 11.8
2005-10-03 09:15:25 51°20.529 2°57.908 62.7 11.6 59 11.8
2005-10-03 09:16:25 51°20.632 2°58.169 62.2 11.7 58 11.7
2005-10-03 09:17:25 51°20.736 2°58.433 61.3 11.8 60 11.7
2005-10-03 09:18:25 51°20.839 2°58.698 63.5 11.7 62 11.7
2005-10-03 09:19:25 51°20.93 2°58.975 65.8 11.8 63 11.7
2005-10-03 09:20:25 51°21.02 2°59.253 65.1 11.8 61 11.4
2005-10-03 09:21:25 51°21.112 2°59.532 67.3 11.9 63 11.5
2005-10-03 09:22:25 51°21.208 2°59.808 60.6 11.7 53 11.4
2005-10-03 09:23:25 51°21.372 2°59.972 36.8 11.8 31 11.3
2005-10-03 09:24:25 51°21.544 3°0.13 37.3 11.9 32 11.5
2005-10-03 09:25:25 51°21.716 3°0.286 37.3 11.8 32 11.5
2005-10-03 09:26:25 51°21.888 3°0.446 34.1 12.1 28 11.3
2005-10-03 09:27:25 51°22.064 3°0.596 34.8 11.9 28 11.3
2005-10-03 09:28:25 51°22.237 3°0.749 33.9 11.9 27 11.3
2005-10-03 09:29:25 51°22.41 3°0.904 35.5 11.9 30 11.2
2005-10-03 09:30:25 51°22.583 3°1.062 35.5 12 31 11.3
2005-10-03 09:31:25 51°22.757 3°1.224 34.3 12 29 11.7
2005-10-03 09:32:25 51°22.931 3°1.383 34.8 12.1 29 12.3
2005-10-03 09:33:25 51°23.104 3°1.544 35.4 12.1 31 12.5
2005-10-03 09:34:25 51°23.276 3°1.705 35.6 12 30 13.2
2005-10-03 09:35:25 51°23.449 3°1.866 35.5 12.1 30 13.5
2005-10-03 09:36:25 51°23.623 3°2.028 34.6 12 29 14.2
2005-10-03 09:37:25 51°23.797 3°2.19 36.2 12.1 31 15.2
2005-10-03 09:38:25 51°23.97 3°2.351 35.1 12.1 30 15.9
2005-10-03 09:39:25 51°24.144 3°2.516 35.8 12.1 31 15.9
2005-10-03 09:40:25 51°24.316 3°2.682 34.8 12 30 16
2005-10-03 09:41:25 51°24.492 3°2.838 34.8 12.1 30 19.4
2005-10-03 09:42:25 51°24.668 3°3.001 34.1 12.1 29 19.3
2005-10-03 09:43:25 51°24.84 3°3.161 36.4 11.9 31 15.8
2005-10-03 09:44:25 51°25.009 3°3.326 35.6 12.3 33 14.8
2005-10-03 09:45:25 51°25.177 3°3.49 36.1 11.8 32 14.3
2005-10-03 09:46:25 51°25.336 3°3.672 46.4 11.8 45 13
2005-10-03 09:47:25 51°25.434 3°3.944 64.9 11.8 65 12.5
2005-10-03 09:48:25 51°25.518 3°4.227 64 11.7 63 11.8
2005-10-03 09:49:25 51°25.606 3°4.509 64 11.9 64 11.8
2005-10-03 09:50:25 51°25.69 3°4.795 64.7 11.9 66 11.7
2005-10-03 09:51:25 51°25.78 3°5.077 63.9 12.1 63 11.4
2005-10-03 09:52:25 51°25.869 3°5.358 63.2 11.9 63 11
2005-10-03 09:53:25 51°25.949 3°5.647 66 12 67 10.9
2005-10-03 09:54:25 51°26.032 3°5.932 64.5 11.9 66 10.7
2005-10-03 09:55:25 51°26.107 3°6.224 69.6 12 70 11
2005-10-03 09:56:25 51°26.169 3°6.527 69.6 12.1 70 10.6
2005-10-03 09:57:25 51°26.233 3°6.833 70.3 12.1 71 10.5
2005-10-03 09:58:25 51°26.301 3°7.138 70.3 12.3 71 10.9
2005-10-03 09:59:25 51°26.365 3°7.445 70.9 12 71 9.4
2005-10-03 10:00:25 51°26.433 3°7.749 71.6 12.2 72 9.6
2005-10-03 10:01:25 51°26.496 3°8.06 70.5 11.4 70 10.1
2005-10-03 10:02:25 51°26.541 3°8.25 61.9 5.6 66 11.2
2005-10-03 10:03:25 51°26.571 3°8.352 52.2 3.4 65 11.3
2005-10-03 10:04:25 51°26.584 3°8.42 56.7 2.4 83 11.5
2005-10-03 10:05:25 51°26.591 3°8.484 57.6 2.5 79 11.3
2005-10-03 10:06:25 51°26.601 3°8.549 53.6 2.6 76 11.7
2005-10-03 10:07:25 51°26.615 3°8.613 51.6 2.5 73 11.5
2005-10-03 10:08:25 51°26.627 3°8.678 56.3 2.5 74 11.5
2005-10-03 10:09:25 51°26.634 3°8.748 59.5 2.6 80 11.7
2005-10-03 10:10:25 51°26.643 3°8.816 56.3 2.5 73 11.6
2005-10-03 10:11:25 51°26.656 3°8.881 50 2.4 66 11.7
2005-10-03 10:12:25 51°26.671 3°8.938 44.2 2.3 61 11.4
2005-10-03 10:13:25 51°26.689 3°8.993 43.6 2.4 69 11.4
2005-10-03 10:14:25 51°26.706 3°9.046 43 2.3 64 11.4
2005-10-03 10:15:25 51°26.725 3°9.101 43.1 2.3 62 11.3
2005-10-03 10:16:25 51°26.743 3°9.157 43.9 2.4 65 11.1
2005-10-03 10:17:25 51°26.764 3°9.211 40.6 2.4 60 11.1
2005-10-03 10:18:25 51°26.784 3°9.263 39.9 2.2 55 11.1
2005-10-03 10:19:25 51°26.805 3°9.315 40.2 2.4 60 11.1
2005-10-03 10:20:25 51°26.824 3°9.367 40 2.3 62 11
2005-10-03 10:21:25 51°26.846 3°9.417 38 2.2 48 10.9
2005-10-03 10:22:25 51°26.87 3°9.469 36.3 2.6 54 10.8
2005-10-03 10:23:25 51°26.897 3°9.519 34.7 2.4 47 10.9
2005-10-03 10:24:25 51°26.923 3°9.568 35.3 2.5 54 11
2005-10-03 10:25:25 51°26.949 3°9.619 35.6 2.4 53 11
2005-10-03 10:26:25 51°26.974 3°9.669 35.5 2.5 55 11.1
2005-10-03 10:27:25 51°27.001 3°9.72 36.2 2.5 56 11.3
2005-10-03 10:28:25 51°27.026 3°9.773 35.9 2.5 53 11.3
2005-10-03 10:29:25 51°27.053 3°9.825 35.5 2.5 54 11.3
2005-10-03 10:30:25 51°27.079 3°9.878 36.1 2.5 54 11.1
2005-10-03 10:31:25 51°27.105 3°9.932 36.4 2.5 51 11.3
2005-10-03 10:32:25 51°27.132 3°9.985 36.1 2.5 49 11.2
2005-10-03 10:33:25 51°27.158 3°10.039 36.8 2.7 61 11.4
2005-10-03 10:34:25 51°27.184 3°10.094 35.9 2.5 49 11.4
2005-10-03 10:35:25 51°27.21 3°10.149 36.2 2.7 56 11.4
2005-10-03 10:36:25 51°27.238 3°10.203 34.9 2.6 52 11.4
2005-10-03 10:37:25 51°27.266 3°10.258 36.8 2.6 53 11.5
2005-10-03 10:38:25 51°27.293 3°10.313 36.4 2.7 57 11.4
2005-10-03 10:39:25 51°27.32 3°10.37 36.6 2.6 56 11.4
2005-10-03 10:40:25 51°27.347 3°10.425 37.1 2.6 53 11.3
2005-10-03 10:41:25 51°27.373 3°10.483 37.7 2.6 51 11.2
2005-10-03 10:42:25 51°27.399 3°10.542 37.2 2.7 56 11.2
2005-10-03 10:43:25 51°27.426 3°10.598 34.8 2.7 54 11.3
2005-10-03 10:44:25 51°27.446 3°10.646 34.4 1.7 63 11.3
2005-10-03 10:45:25 51°27.457 3°10.684 33 1.7 65 11.2
2005-10-03 10:46:25 51°27.458 3°10.753 88.9 3.7 105 11.2
2005-10-03 10:47:25 51°27.402 3°10.823 168.2 4.8 170 11
2005-10-03 10:48:25 51°27.333 3°10.79 235.8 3.7 214 11
2005-10-03 10:49:25 51°27.289 3°10.74 243.8 2.9 217 10.9
2005-10-03 10:50:25 51°27.252 3°10.699 246.9 2.5 215 11
2005-10-03 10:51:25 51°27.216 3°10.662 238.3 2.8 212 11
2005-10-03 10:52:25 51°27.171 3°10.63 224.3 3.1 203 10.9
2005-10-03 10:53:25 51°27.119 3°10.608 209.9 3.3 192 10.9
2005-10-03 10:54:25 51°27.067 3°10.592 216.6 3 196 11
2005-10-03 10:55:25 51°27.022 3°10.571 228.4 2.7 198 11
2005-10-03 10:56:25 51°26.983 3°10.545 240.5 2.4 208 11
2005-10-03 10:57:25 51°26.948 3°10.516 243.3 2.4 208 11
2005-10-03 10:58:25 51°26.917 3°10.482 258.6 2.1 222 11.1
2005-10-03 10:59:25 51°26.891 3°10.438 261.2 2.4 230 11.1
2005-10-03 11:00:25 51°26.865 3°10.387 265.1 2.5 233 11.2
2005-10-03 11:01:25 51°26.846 3°10.332 273.6 2.4 242 11.2
2005-10-03 11:02:25 51°26.83 3°10.275 276.5 2.4 244 11.4
2005-10-03 11:03:25 51°26.815 3°10.219 275 2.3 249 11.3
2005-10-03 11:04:25 51°26.799 3°10.161 275 2.4 249 11.4
2005-10-03 11:05:25 51°26.784 3°10.103 275.3 2.4 246 11.4
2005-10-03 11:06:25 51°26.769 3°10.045 275 2.4 247 11.4
2005-10-03 11:07:25 51°26.754 3°9.987 275.4 2.5 240 11.5
2005-10-03 11:08:25 51°26.739 3°9.93 275.7 2.5 243 11.5
2005-10-03 11:09:25 51°26.725 3°9.874 275.4 2.3 252 11.6
2005-10-03 11:10:25 51°26.712 3°9.817 275.8 2.3 248 11.6
2005-10-03 11:11:25 51°26.698 3°9.762 275.4 2.2 249 11.9
2005-10-03 11:12:25 51°26.687 3°9.707 275.7 2.3 246 12
2005-10-03 11:13:25 51°26.673 3°9.65 274.7 2.3 248 11.8
2005-10-03 11:14:25 51°26.66 3°9.592 274.7 2.4 252 11.7
2005-10-03 11:15:25 51°26.644 3°9.533 269.7 2.3 253 11.8
2005-10-03 11:16:25 51°26.625 3°9.476 267.2 2.5 246 12
2005-10-03 11:17:25 51°26.607 3°9.418 269.3 2.4 243 12.2
2005-10-03 11:18:25 51°26.589 3°9.361 267.9 2.4 246 12.2
2005-10-03 11:19:25 51°26.572 3°9.304 270 2.3 248 12.1
2005-10-03 11:20:25 51°26.556 3°9.246 268.7 2.4 246 12.4
2005-10-03 11:21:25 51°26.539 3°9.191 268.8 2.3 245 12.4
2005-10-03 11:22:25 51°26.522 3°9.136 268.2 2.3 244 12.2
2005-10-03 11:23:25 51°26.507 3°9.083 269.4 2.2 249 12.2
2005-10-03 11:24:25 51°26.493 3°9.028 269.1 2.3 252 12.2
2005-10-03 11:25:25 51°26.482 3°8.965 274 2.6 263 12.3
2005-10-03 11:26:25 51°26.476 3°8.893 276.7 2.8 263 12.4
2005-10-03 11:27:25 51°26.474 3°8.819 280 2.8 266 12.6
2005-10-03 11:28:25 51°26.475 3°8.749 283.7 2.3 272 12.7
2005-10-03 11:29:25 51°26.48 3°8.707 294.6 1.1 287 12.9
2005-10-03 11:30:25 51°26.485 3°8.692 299.6 0.4 329 13
2005-10-03 11:31:25 51°26.49 3°8.69 303.9 0.2 36 13
2005-10-03 11:32:25 51°26.491 3°8.698 306.6 0.5 72 13.1
2005-10-03 11:33:25 51°26.491 3°8.713 309.7 0.8 85 13
2005-10-03 11:34:25 51°26.489 3°8.733 312.8 0.9 94 13
2005-10-03 11:35:25 51°26.485 3°8.755 313.7 1 109 13.1
2005-10-03 11:36:25 51°26.48 3°8.781 313.5 1 99 12.9
2005-10-03 11:37:25 51°26.475 3°8.808 312 1.1 105 12.9
2005-10-03 11:38:25 51°26.469 3°8.838 309.3 1.2 111 12.8
2005-10-03 11:39:25 51°26.463 3°8.869 307.4 1.2 106 12.7
2005-10-03 11:40:25 51°26.457 3°8.9 305.2 1.2 113 12.6
2005-10-03 11:41:25 51°26.451 3°8.931 304.8 1.3 103 12.7
2005-10-03 11:42:25 51°26.445 3°8.964 304.6 1.4 111 12.6
2005-10-03 11:43:25 51°26.438 3°8.996 301.5 1.3 117 12.6
2005-10-03 11:44:25 51°26.43 3°9.03 299.9 1.4 102 12.4
2005-10-03 11:45:25 51°26.431 3°9.041 301.1 1.3 308 12.4
2005-10-03 11:46:25 51°26.423 3°8.997 238.2 2.9 214 12.5
2005-10-03 11:47:25 51°26.351 3°9.057 135.2 6.6 120 12.2
2005-10-03 11:48:25 51°26.34 3°9.308 90.9 12.1 90 11.6
2005-10-03 11:49:25 51°26.341 3°9.675 92.9 14 91 11.6
2005-10-03 11:50:25 51°26.34 3°10.055 92 14.2 88 11.1
2005-10-03 11:51:25 51°26.323 3°10.431 106.8 14.1 103 10.9
2005-10-03 11:52:25 51°26.194 3°10.739 140.5 14.4 134 10.6
2005-10-03 11:53:25 51°26.024 3°10.988 146.5 14.1 140 10.1
2005-10-03 11:54:25 51°25.85 3°11.233 144.1 14.1 136 10
2005-10-03 11:55:25 51°25.677 3°11.477 146.9 13.9 140 10.2
2005-10-03 11:56:25 51°25.504 3°11.727 146.1 14.1 140 11.8
2005-10-03 11:57:25 51°25.334 3°11.98 143.6 13.7 136 12.4
2005-10-03 11:58:26 51°25.16 3°12.237 144.7 14.2 137 13
2005-10-03 11:59:25 51°24.993 3°12.491 146.5 14.1 135 14.5
2005-10-03 12:00:26 51°24.825 3°12.763 145.4 14.2 134 16.2
2005-10-03 12:01:25 51°24.663 3°13.028 144.2 14 135 18.2
2005-10-03 12:02:25 51°24.499 3°13.295 146.5 14.2 135 20.9
2005-10-03 12:03:25 51°24.336 3°13.573 144.8 14.6 133 20.5
2005-10-03 12:04:25 51°24.173 3°13.857 145.1 14.4 132 16.3
2005-10-03 12:05:25 51°24.063 3°14.198 111 15 100 13.7
2005-10-03 12:06:25 51°24.059 3°14.605 95.4 15.3 88 13.7
2005-10-03 12:07:26 51°24.057 3°15.019 95.8 15.4 89 14
2005-10-03 12:08:25 51°24.049 3°15.42 97.7 15.3 92 14.9
2005-10-03 12:09:25 51°24.04 3°15.825 96.5 15.2 91 15.5
2005-10-03 12:10:25 51°24.033 3°16.233 98.1 15.4 93 15.3
2005-10-03 12:11:25 51°24.004 3°16.638 106 15.2 99 15
2005-10-03 12:12:26 51°23.961 3°17.047 110.6 15.5 104 14.8
2005-10-03 12:13:25 51°23.89 3°17.428 117.5 15 110 14.8
2005-10-03 12:14:26 51°23.805 3°17.811 119 15.1 110 14.6
2005-10-03 12:15:26 51°23.738 3°18.149 118 10.9 105 14.2
2005-10-03 12:16:26 51°23.7 3°18.375 115.4 7.4 102 14.1
2005-10-03 12:17:24 51°23.69 3°18.532 104.6 5.4 92 14.2
2005-10-03 12:18:26 51°23.691 3°18.665 100.6 4.6 90 14.2
2005-10-03 12:19:26 51°23.692 3°18.776 99.6 3.9 92 14.4
2005-10-03 12:20:25 51°23.693 3°18.873 98.7 3.6 89 14.4
2005-10-03 12:21:26 51°23.694 3°18.971 100.1 4 94 14.5
2005-10-03 12:22:26 51°23.693 3°19.072 105 3.6 93 14.6
2005-10-03 12:23:26 51°23.689 3°19.186 102.1 4.8 91 14.5
2005-10-03 12:24:25 51°23.687 3°19.317 102.3 4.8 95 14.5
2005-10-03 12:25:25 51°23.682 3°19.436 104.3 4.2 93 14.6
2005-10-03 12:26:25 51°23.677 3°19.542 105.2 3.9 93 14.6
2005-10-03 12:27:25 51°23.674 3°19.639 104 3.6 91 14.5
2005-10-03 12:28:25 51°23.673 3°19.733 99.5 3.5 91 14.7
2005-10-03 12:29:26 51°23.674 3°19.825 99.8 3.4 88 14.7
2005-10-03 12:30:26 51°23.675 3°19.914 99.6 3.3 92 14.8
2005-10-03 12:31:24 51°23.674 3°19.998 100.7 3.2 91 14.9
2005-10-03 12:32:25 51°23.674 3°20.086 101 3.2 92 14.8
2005-10-03 12:33:24 51°23.675 3°20.17 100 3.2 86 14.8
2005-10-03 12:34:25 51°23.676 3°20.255 101.3 3.2 89 14.9
2005-10-03 12:35:26 51°23.677 3°20.341 101.7 3.2 92 15
2005-10-03 12:36:25 51°23.677 3°20.425 103.9 3.2 91 15
2005-10-03 12:37:26 51°23.676 3°20.511 107.5 3.3 93 15.1
2005-10-03 12:38:25 51°23.672 3°20.595 110.1 3.3 92 15
2005-10-03 12:39:25 51°23.668 3°20.681 109.9 3.2 96 15.2
2005-10-03 12:40:25 51°23.664 3°20.766 110.6 3.1 95 15.2
2005-10-03 12:41:26 51°23.661 3°20.85 110.9 3.1 94 15.3
2005-10-03 12:42:25 51°23.656 3°20.929 111.2 3 93 15.3
2005-10-03 12:43:25 51°23.653 3°21.008 109.6 3.1 91 15.3
2005-10-03 12:44:25 51°23.65 3°21.087 108.7 3 90 15.3
2005-10-03 12:45:25 51°23.646 3°21.165 108.1 3 92 15.4
2005-10-03 12:46:26 51°23.643 3°21.242 109 2.9 91 15.3
2005-10-03 12:47:25 51°23.639 3°21.315 110.1 2.7 97 15.4
2005-10-03 12:48:25 51°23.636 3°21.386 109.7 2.6 97 15.4
2005-10-03 12:49:26 51°23.633 3°21.454 107.5 2.4 94 15.4
2005-10-03 12:50:25 51°23.631 3°21.517 105.2 2.4 94 15.4
2005-10-03 12:51:26 51°23.629 3°21.585 104.8 2.9 96 15.5
2005-10-03 12:52:26 51°23.623 3°21.673 109.2 3.6 95 15.5
2005-10-03 12:53:25 51°23.614 3°21.772 112.4 4.1 96 15.5
2005-10-03 12:54:26 51°23.604 3°21.884 109.7 4.4 96 15.6
2005-10-03 12:55:25 51°23.586 3°21.994 143.2 4.3 122 15.4
2005-10-03 12:56:25 51°23.508 3°22.016 218.9 4.1 195 14.9
2005-10-03 12:57:25 51°23.47 3°21.991 236.6 1.7 205 14.6
2005-10-03 12:58:25 51°23.452 3°21.946 264.9 3.7 261 14.4
2005-10-03 12:59:26 51°23.452 3°21.765 275.1 7.8 274 13.9
2005-10-03 13:00:26 51°23.459 3°21.562 275.9 6.3 274 13.9
2005-10-03 13:01:25 51°23.472 3°21.461 279.5 2.9 281 14.2
2005-10-03 13:02:25 51°23.473 3°21.392 267.9 2.6 266 14.2
2005-10-03 13:03:25 51°23.468 3°21.323 267.8 2.7 264 14.1
2005-10-03 13:04:25 51°23.466 3°21.253 268.7 2.6 269 14.1
2005-10-03 13:05:25 51°23.461 3°21.184 268.2 2.7 264 14.1
2005-10-03 13:06:25 51°23.457 3°21.113 268.9 2.7 265 14
2005-10-03 13:07:25 51°23.454 3°21.04 268.9 2.7 267 13.9
2005-10-03 13:08:25 51°23.451 3°20.966 269.6 2.8 266 14
2005-10-03 13:09:25 51°23.455 3°20.892 275.4 2.6 283 13.8
2005-10-03 13:10:25 51°23.461 3°20.826 276.1 2.5 282 13.8
2005-10-03 13:11:25 51°23.467 3°20.763 275.3 2.3 278 13.9
2005-10-03 13:12:25 51°23.472 3°20.703 274.8 2.3 278 13.7
2005-10-03 13:13:26 51°23.478 3°20.639 274.3 2.4 278 13.9
2005-10-03 13:14:26 51°23.481 3°20.574 273.4 2.5 275 13.8
2005-10-03 13:15:25 51°23.484 3°20.508 273.9 2.6 275 13.8
2005-10-03 13:16:25 51°23.489 3°20.439 274.8 2.6 280 13.8
2005-10-03 13:17:25 51°23.495 3°20.37 274.4 2.6 277 13.7
2005-10-03 13:18:26 51°23.499 3°20.3 274.2 2.6 278 13.7
2005-10-03 13:19:25 51°23.504 3°20.232 274.8 2.6 281 13.7
2005-10-03 13:20:25 51°23.509 3°20.165 274.2 2.5 277 13.6
2005-10-03 13:21:25 51°23.513 3°20.099 274.4 2.5 274 13.6
2005-10-03 13:22:26 51°23.515 3°20.033 270.3 2.4 270 13.6
2005-10-03 13:23:25 51°23.515 3°19.97 270 2.4 272 13.6
2005-10-03 13:24:25 51°23.514 3°19.906 268.7 2.4 267 13.5
2005-10-03 13:25:25 51°23.513 3°19.841 269.8 2.4 269 13.5
2005-10-03 13:26:25 51°23.512 3°19.775 269.1 2.5 270 13.4
2005-10-03 13:27:25 51°23.511 3°19.711 269.6 2.5 270 13.4
2005-10-03 13:28:25 51°23.51 3°19.647 269.5 2.4 272 13.5
2005-10-03 13:29:25 51°23.51 3°19.583 269.4 2.4 269 13.4
2005-10-03 13:30:25 51°23.509 3°19.518 269.7 2.4 266 13.3
2005-10-03 13:31:25 51°23.51 3°19.453 269.4 2.5 269 13.3
2005-10-03 13:32:25 51°23.509 3°19.381 269.1 2.8 266 13.3
2005-10-03 13:33:25 51°23.509 3°19.308 269.2 2.8 268 13.2
2005-10-03 13:34:26 51°23.509 3°19.233 269.6 2.7 271 13.2
2005-10-03 13:35:25 51°23.51 3°19.166 270.2 2.6 274 13.2
2005-10-03 13:36:26 51°23.51 3°19.104 266.8 1.7 266 13.1
2005-10-03 13:37:25 51°23.508 3°19.073 265.6 0.9 279 13.1
2005-10-03 13:38:25 51°23.498 3°19.047 232 1.9 211 13.1
2005-10-03 13:39:26 51°23.477 3°19.061 185.4 1.1 101 12.9
2005-10-03 13:40:25 51°23.475 3°19.093 158.8 1.3 96 13
2005-10-03 13:41:25 51°23.473 3°19.128 142.8 1.4 95 12.9
2005-10-03 13:42:25 51°23.472 3°19.165 132.8 1.4 96 13
2005-10-03 13:43:25 51°23.47 3°19.202 127.7 1.4 94 13
2005-10-03 13:44:25 51°23.468 3°19.236 124 1.3 100 12.9
2005-10-03 13:45:25 51°23.466 3°19.27 117.7 1.2 95 13
2005-10-03 13:46:11 51°23.458 3°19.313 121.1 3.7 114 12.8
2005-10-03 13:46:41 51°23.432 3°19.364 149.4 5.4 138 12.7
2005-10-03 13:47:40 51°23.33 3°19.345 225.3 7.6 221 12
2005-10-03 13:48:40 51°23.27 3°19.131 261.5 9.7 260 11.4
2005-10-03 13:49:40 51°23.237 3°18.863 263 11.4 260 11.3
2005-10-03 13:50:40 51°23.2 3°18.551 262.7 12 259 11.3
2005-10-03 13:51:40 51°23.162 3°18.236 262.8 12 260 11.3
2005-10-03 13:52:40 51°23.126 3°17.922 262.1 12 261 10.9
2005-10-03 13:53:41 51°23.088 3°17.606 261.9 11.9 259 10.7
2005-10-03 13:54:41 51°23.052 3°17.295 263 11.8 259 10.7
2005-10-03 13:55:40 51°23.016 3°16.989 263 11.9 261 10.6
2005-10-03 13:56:40 51°22.98 3°16.679 262.2 11.9 258 10.6
2005-10-03 13:57:40 51°22.943 3°16.372 262.5 11.8 256 10.5
2005-10-03 13:58:41 51°22.902 3°16.058 262.4 11.8 259 10.5
2005-10-03 13:59:40 51°22.864 3°15.756 262.6 11.8 260 10.5
2005-10-03 14:00:40 51°22.833 3°15.446 264.2 11.8 261 10.4
2005-10-03 14:01:40 51°22.802 3°15.136 264.6 11.8 261 10.8
2005-10-03 14:02:40 51°22.771 3°14.827 263.4 11.8 259 11.3
2005-10-03 14:03:40 51°22.742 3°14.517 263.7 11.7 258 11.8
2005-10-03 14:04:40 51°22.712 3°14.21 264.8 11.7 261 12.2
2005-10-03 14:05:40 51°22.682 3°13.902 264.1 11.8 261 12.7
2005-10-03 14:06:40 51°22.65 3°13.595 264.3 11.8 261 13.6
2005-10-03 14:07:40 51°22.619 3°13.288 263.4 11.7 261 14.1
2005-10-03 14:08:40 51°22.589 3°12.979 264.5 11.8 262 14.8
2005-10-03 14:09:40 51°22.557 3°12.671 259.3 11.7 253 15.4
2005-10-03 14:10:41 51°22.479 3°12.379 250 11.7 248 16.3
2005-10-03 14:11:40 51°22.406 3°12.1 249.6 11.6 247 17.6
2005-10-03 14:12:40 51°22.332 3°11.818 248.3 11.5 245 17.9
2005-10-03 14:13:40 51°22.257 3°11.535 250.8 11.6 249 18
2005-10-03 14:14:40 51°22.184 3°11.247 250.4 11.6 248 19
2005-10-03 14:15:40 51°22.114 3°10.956 252.1 11.9 251 20.4
2005-10-03 14:16:40 51°22.041 3°10.662 250.3 11.9 248 17.8
2005-10-03 14:17:41 51°21.969 3°10.362 250.8 11.9 249 16.8
2005-10-03 14:18:40 51°21.9 3°10.068 250.7 12.1 249 15.5
2005-10-03 14:19:41 51°21.831 3°9.762 251.7 12.1 249 14.5
2005-10-03 14:20:40 51°21.759 3°9.469 251.8 12.1 248 13.7
2005-10-03 14:21:41 51°21.691 3°9.164 254 12 252 13
2005-10-03 14:22:40 51°21.623 3°8.873 249.9 12 249 12
2005-10-03 14:23:40 51°21.555 3°8.576 251.8 11.8 249 11.8
2005-10-03 14:24:40 51°21.488 3°8.275 253.3 12.1 249 11.4
2005-10-03 14:25:40 51°21.419 3°7.976 250.8 12 249 11.2
2005-10-03 14:26:41 51°21.343 3°7.677 251.9 11.9 247 10.9
2005-10-03 14:27:40 51°21.269 3°7.392 250.4 11.7 247 11
2005-10-03 14:28:40 51°21.214 3°7.238 224.8 3.9 220 10.8
2005-10-03 14:29:40 51°21.182 3°7.236 177.4 1.3 136 10.5
2005-10-03 14:30:41 51°21.181 3°7.263 143.6 1.1 82 10.6
2005-10-03 14:31:40 51°21.183 3°7.29 127.3 0.9 84 10.5
2005-10-03 14:32:41 51°21.179 3°7.33 139.1 2.7 121 10.5
2005-10-03 14:33:41 51°21.133 3°7.335 223 3.2 221 10.3
2005-10-03 14:34:40 51°21.128 3°7.241 269.2 3.8 275 10.2
2005-10-03 14:35:41 51°21.127 3°7.144 259.5 3.5 264 10.4
2005-10-03 14:36:40 51°21.12 3°7.055 258.2 3.4 264 10.3
2005-10-03 14:37:41 51°21.114 3°6.965 259.1 3.3 263 10.2
2005-10-03 14:38:40 51°21.11 3°6.882 257.1 3.1 260 10.5
2005-10-03 14:39:40 51°21.1 3°6.804 253.4 3.1 264 10.2
2005-10-03 14:40:40 51°21.09 3°6.726 254 3 261 10.5
2005-10-03 14:41:40 51°21.079 3°6.647 253.9 3.1 259 10.6
2005-10-03 14:42:41 51°21.069 3°6.567 253.6 3 258 10.5
2005-10-03 14:43:40 51°21.058 3°6.49 251.8 3 256 10.4
2005-10-03 14:44:40 51°21.043 3°6.414 248.9 3 252 10.3
2005-10-03 14:45:40 51°21.027 3°6.338 248.2 3 249 10.3
2005-10-03 14:46:40 51°21.01 3°6.262 248.5 3.1 258 10.2
2005-10-03 14:47:40 51°20.992 3°6.186 248.2 3 249 10.2
2005-10-03 14:48:41 51°20.975 3°6.11 248.9 3 250 10.2
2005-10-03 14:49:41 51°20.958 3°6.036 249.4 3 257 10.1
2005-10-03 14:50:40 51°20.943 3°5.961 250.4 3 256 10.2
2005-10-03 14:51:41 51°20.928 3°5.883 250.2 3 250 10.2
2005-10-03 14:52:41 51°20.912 3°5.807 249.4 3 251 10.1
2005-10-03 14:53:41 51°20.897 3°5.731 249.7 3.1 258 10.1
2005-10-03 14:54:41 51°20.88 3°5.657 248.9 2.9 250 10.1
2005-10-03 14:55:41 51°20.865 3°5.582 249.1 3 254 10.2
2005-10-03 14:56:40 51°20.849 3°5.508 249.7 3 251 10.1
2005-10-03 14:57:40 51°20.834 3°5.432 249.6 3 249 10
2005-10-03 14:58:41 51°20.818 3°5.355 249 3 250 10
2005-10-03 14:59:40 51°20.803 3°5.28 249.8 3 254 10
2005-10-03 15:00:40 51°20.787 3°5.205 249.6 3 255 9.9
2005-10-03 15:01:40 51°20.772 3°5.129 249.6 3 252 9.9
2005-10-03 15:02:41 51°20.757 3°5.052 249.4 3 255 9.9
2005-10-03 15:03:40 51°20.742 3°4.978 248.7 3 255 10
2005-10-03 15:04:40 51°20.726 3°4.901 249.1 3.1 258 9.7
2005-10-03 15:05:40 51°20.711 3°4.826 249.5 2.9 250 10
2005-10-03 15:06:40 51°20.696 3°4.75 249.5 3 251 9.8
2005-10-03 15:07:41 51°20.678 3°4.674 248.2 3 247 10.1
2005-10-03 15:08:40 51°20.66 3°4.6 248.9 3 246 9.6
2005-10-03 15:09:40 51°20.641 3°4.525 253.2 3 255 9.7
2005-10-03 15:10:40 51°20.631 3°4.448 257.6 2.7 256 9.7
2005-10-03 15:11:41 51°20.618 3°4.346 259.6 4.3 260 9.6
2005-10-03 15:12:41 51°20.614 3°4.257 267.7 2.8 274 9.6
2005-10-03 15:13:40 51°20.622 3°4.199 282.9 2.1 290 9.7
2005-10-03 15:14:41 51°20.625 3°4.118 255.3 3.5 259 9.7
2005-10-03 15:15:40 51°20.606 3°4.023 248.8 4 256 9.8
2005-10-03 15:16:41 51°20.589 3°3.927 254.9 3.6 261 9.6
2005-10-03 15:17:41 51°20.582 3°3.837 259.4 3.3 265 9.7
2005-10-03 15:18:40 51°20.574 3°3.758 254 3 261 9.7
2005-10-03 15:19:40 51°20.562 3°3.682 250.2 3 258 9.7
2005-10-03 15:20:41 51°20.547 3°3.606 248.7 2.9 247 9.8
2005-10-03 15:21:41 51°20.532 3°3.531 248.7 3.1 254 9.6
2005-10-03 15:22:41 51°20.516 3°3.455 248.6 3 247 9.8
2005-10-03 15:23:41 51°20.5 3°3.378 248.6 3 249 9.6
2005-10-03 15:24:40 51°20.482 3°3.305 248.2 3 245 9.7
2005-10-03 15:25:41 51°20.466 3°3.226 249.7 3.1 250 9.8
2005-10-03 15:26:41 51°20.45 3°3.148 249.3 3.1 252 9.7
2005-10-03 15:27:41 51°20.434 3°3.071 248.8 3.1 251 9.5
2005-10-03 15:28:41 51°20.418 3°2.993 249.3 3 249 9.6
2005-10-03 15:29:40 51°20.402 3°2.917 249.3 3.1 250 9.6
2005-10-03 15:30:41 51°20.386 3°2.838 248.9 3.1 251 9.6
2005-10-03 15:31:40 51°20.37 3°2.76 248.7 3.2 254 9.6
2005-10-03 15:32:41 51°20.352 3°2.68 249.2 3.2 248 9.8
2005-10-03 15:33:41 51°20.335 3°2.599 249.6 3.2 252 9.6
2005-10-03 15:34:41 51°20.318 3°2.518 250.1 3.3 254 9.6
2005-10-03 15:35:41 51°20.301 3°2.436 249.2 3.3 251 9.5
2005-10-03 15:36:41 51°20.283 3°2.354 248.9 3.3 251 9.6
2005-10-03 15:37:40 51°20.269 3°2.276 249.7 3.1 257 9.4
2005-10-03 15:38:41 51°20.254 3°2.199 249.6 3.1 258 9.4
2005-10-03 15:39:40 51°20.239 3°2.124 249.4 3 255 9.5
2005-10-03 15:40:41 51°20.226 3°2.047 250.1 2.9 255 9.5
2005-10-03 15:41:41 51°20.21 3°1.972 245.3 2.9 249 9.4
2005-10-03 15:42:41 51°20.191 3°1.898 242.7 3 247 9.3
2005-10-03 15:43:41 51°20.172 3°1.824 242.8 3 245 9.4
2005-10-03 15:44:40 51°20.154 3°1.751 243.5 3 250 9.3
2005-10-03 15:45:40 51°20.134 3°1.675 243.7 3.2 249 9.1
2005-10-03 15:46:41 51°20.114 3°1.597 245.3 3.1 249 9.2
2005-10-03 15:47:41 51°20.098 3°1.52 246 3.1 250 9.1
2005-10-03 15:48:41 51°20.079 3°1.444 244.6 3 249 9.1
2005-10-03 15:49:41 51°20.061 3°1.369 244 3.3 249 9
2005-10-03 15:50:41 51°20.027 3°1.261 239.8 6.4 243 9.1
2005-10-03 15:51:40 51°19.969 3°1.101 240.7 6.2 243 8.9
2005-10-03 15:52:41 51°19.933 3°0.994 238.4 3.6 239 8.8
2005-10-03 15:53:41 51°19.91 3°0.924 235 2.5 244 9
2005-10-03 15:54:41 51°19.901 3°0.89 223.4 0.6 259 9
2005-10-03 15:55:41 51°19.899 3°0.871 224.9 0.7 252 8.9
2005-10-03 15:56:41 51°19.896 3°0.85 230.5 0.9 258 8.8
2005-10-03 15:57:41 51°19.893 3°0.828 237.2 0.9 258 8.9
2005-10-03 15:58:40 51°19.89 3°0.807 245.3 0.9 259 8.8
2005-10-03 15:59:40 51°19.889 3°0.783 255.3 0.8 272 8.9
2005-10-03 16:00:41 51°19.889 3°0.761 265.6 0.8 260 8.8
2005-10-03 16:01:40 51°19.89 3°0.739 275.9 0.8 274 8.8
2005-10-03 16:02:41 51°19.893 3°0.718 285 0.8 275 8.9
2005-10-03 16:03:41 51°19.895 3°0.698 292.1 0.9 260 8.8
2005-10-03 16:04:41 51°19.898 3°0.678 296.6 0.8 274 8.9
2005-10-03 16:05:40 51°19.905 3°0.634 294 3.3 288 8.9
2005-10-03 16:06:41 51°19.899 3°0.488 251.7 8.2 251 8.8
2005-10-03 16:07:41 51°19.824 3°0.206 249.9 12.6 250 8.6
2005-10-03 16:08:40 51°19.746 2°59.893 249.3 13 249 8.7
2005-10-03 16:09:40 51°19.667 2°59.571 248.8 13 248 8.7
2005-10-03 16:10:40 51°19.586 2°59.251 249.1 12.8 248 8.8
2005-10-03 16:11:41 51°19.506 2°58.926 249 12.9 246 8.8
2005-10-03 16:12:41 51°19.417 2°58.618 243.9 12.7 245 8.8
2005-10-03 16:13:41 51°19.322 2°58.314 244.5 12.8 245 8.8
2005-10-03 16:14:41 51°19.225 2°58.011 242.3 12.9 241 8.9
2005-10-03 16:15:41 51°19.127 2°57.708 244.5 12.9 244 8.9
2005-10-03 16:16:41 51°19.023 2°57.41 237.5 13 236 8.9
2005-10-03 16:17:41 51°18.909 2°57.121 240.1 12.9 238 8.8
2005-10-03 16:18:41 51°18.791 2°56.836 235.8 12.9 234 8.8
2005-10-03 16:19:41 51°18.666 2°56.556 235.1 12.9 234 8.6
2005-10-03 16:20:40 51°18.544 2°56.278 236.7 13.1 237 8.8
2005-10-03 16:21:40 51°18.417 2°55.994 235.8 13.2 234 8.9
2005-10-03 16:22:41 51°18.287 2°55.707 236 13 234 8.9
2005-10-03 16:23:40 51°18.161 2°55.431 237.7 13.2 233 9
2005-10-03 16:24:41 51°18.029 2°55.145 233.5 13.1 231 8.8
2005-10-03 16:25:41 51°17.901 2°54.866 235.8 12.9 234 8.6
2005-10-03 16:26:41 51°17.776 2°54.583 237.1 13.1 234 8.6
2005-10-03 16:27:41 51°17.646 2°54.306 234.4 12.9 234 8.5
2005-10-03 16:28:41 51°17.516 2°54.03 234.7 13 232 8.5
2005-10-03 16:29:41 51°17.382 2°53.761 234.4 13 232 8.4
2005-10-03 16:30:40 51°17.241 2°53.506 227.4 12.9 225 8.3
2005-10-03 16:31:41 51°17.055 2°53.332 203.2 12.7 201 8
2005-10-03 16:32:41 51°16.849 2°53.263 187.3 12.8 186 10
2005-10-03 16:33:41 51°16.632 2°53.249 182.2 12.6 181 11.3
2005-10-03 16:34:41 51°16.417 2°53.263 177 12.6 175 11.7
2005-10-03 16:35:40 51°16.206 2°53.288 173.3 12.7 173 11.6
2005-10-03 16:36:41 51°15.992 2°53.349 166.6 12.6 167 11.4
2005-10-03 16:37:40 51°15.791 2°53.452 160.5 12.8 161 10.8
2005-10-03 16:38:40 51°15.591 2°53.571 156.7 12.8 157 10.3
2005-10-03 16:39:41 51°15.401 2°53.731 151.7 12.7 154 9.8
2005-10-03 16:40:41 51°15.218 2°53.9 146.6 12.7 147 8.9
2005-10-03 16:41:41 51°15.044 2°54.079 146 12.2 145 8.3
2005-10-03 16:42:41 51°14.88 2°54.274 142.1 12.5 142 8.7
2005-10-03 16:43:41 51°14.717 2°54.475 141.3 12.2 143 9.1
2005-10-03 16:44:41 51°14.567 2°54.68 136.8 11.3 140 9.5
2005-10-03 16:45:40 51°14.437 2°54.889 127.5 11 131 10.3
2005-10-03 16:46:41 51°14.329 2°55.126 127.1 11 125 10.1
2005-10-03 16:47:41 51°14.217 2°55.327 140.7 8.8 140 10
2005-10-03 16:48:41 51°14.099 2°55.434 157.2 8.1 155 9.9
2005-10-03 16:49:41 51°13.976 2°55.521 158.9 8.1 156 9.6
2005-10-03 16:50:40 51°13.855 2°55.609 158 8.1 155 9.3
2005-10-03 16:51:41 51°13.749 2°55.721 142.6 6.8 139 9.2
2005-10-03 16:52:41 51°13.685 2°55.838 130.4 5.4 128 8.6
2005-10-03 16:53:40 51°13.64 2°55.942 123 4.6 121 8.6
2005-10-03 16:54:41 51°13.614 2°56.044 110.3 3.4 107 9.3
2005-10-03 16:55:41 51°13.604 2°56.09 108.8 0.6 122 6
2005-10-03 16:56:41 51°13.6 2°56.095 113.6 0.3 187 6